Time;durP1;ratioP1;P1;durP2;ratioP2;P2;SDS_P1;SDS_P2;PMS_P1;PMS_P2;Temp;Humidity;BMP_temperature;BMP_pressure;BME280_temperature;BME280_humidity;BME280_pressure;Samples;Min_cycle;Max_cycle;Signal;HPM_P1;HPM_P2
2023/06/14 00:05:23;;;;;;;9.90;7.68;;;;;;;21.90;100.00;100617.25;20957259;28;20106;-74
2023/06/14 00:15:46;;;;;;;14.25;6.97;;;;;;;21.77;100.00;100616.78;20974810;28;20447;-75
2023/06/14 00:26:10;;;;;;;12.07;7.45;;;;;;;21.72;100.00;100613.38;20973107;28;20592;-74
2023/06/14 00:36:34;;;;;;;10.90;6.30;;;;;;;21.69;100.00;100617.94;20961919;28;20552;-75
2023/06/14 00:46:58;;;;;;;13.07;7.80;;;;;;;21.53;100.00;100605.94;20955546;28;20259;-74
2023/06/14 00:57:23;;;;;;;13.82;7.40;;;;;;;21.42;100.00;100608.94;20982100;28;20622;-75
2023/06/14 01:07:40;;;;;;;11.45;7.25;;;;;;;21.39;100.00;100611.75;20973667;28;20110;-74
2023/06/14 01:18:03;;;;;;;12.48;7.88;;;;;;;21.25;100.00;100606.81;20969046;28;20045;-74
2023/06/14 01:28:31;;;;;;;12.23;7.97;;;;;;;21.07;100.00;100610.00;20958326;28;20125;-74
2023/06/14 01:38:56;;;;;;;10.47;7.53;;;;;;;20.89;100.00;100605.16;20975126;28;20369;-74
2023/06/14 01:49:21;;;;;;;11.07;7.70;;;;;;;20.87;100.00;100594.47;20991486;28;20064;-75
2023/06/14 01:59:48;;;;;;;9.35;7.47;;;;;;;20.75;100.00;100602.00;20960692;28;20048;-74
2023/06/14 02:10:12;;;;;;;13.55;7.60;;;;;;;20.63;100.00;100600.56;20974133;28;20041;-74
2023/06/14 02:20:34;;;;;;;13.02;7.75;;;;;;;20.52;100.00;100590.16;20992969;28;20052;-74
2023/06/14 02:31:00;;;;;;;11.55;8.00;;;;;;;20.52;100.00;100595.50;20967001;28;20048;-75
2023/06/14 02:41:22;;;;;;;14.00;8.48;;;;;;;20.42;100.00;100609.19;20959819;28;20041;-75
2023/06/14 02:51:46;;;;;;;11.88;9.00;;;;;;;20.33;100.00;100618.38;20971253;28;20130;-74
2023/06/14 03:02:09;;;;;;;14.38;8.57;;;;;;;20.31;100.00;100614.81;20980341;28;20060;-75
2023/06/14 03:12:35;;;;;;;13.35;8.68;;;;;;;20.24;100.00;100605.19;20957601;28;20053;-74
2023/06/14 03:22:58;;;;;;;11.27;7.60;;;;;;;20.25;100.00;100614.97;20973595;28;20056;-74
2023/06/14 03:33:24;;;;;;;13.18;6.95;;;;;;;20.47;100.00;100613.53;20941074;28;20127;-75
2023/06/14 03:43:48;;;;;;;11.52;6.38;;;;;;;20.85;100.00;100617.81;20911322;28;20057;-75
2023/06/14 03:54:13;;;;;;;8.75;4.70;;;;;;;21.37;100.00;100614.47;20944059;28;20056;-75
2023/06/14 04:04:36;;;;;;;9.48;4.97;;;;;;;21.98;100.00;100614.34;20952014;28;20560;-75
2023/06/14 04:15:02;;;;;;;7.50;4.03;;;;;;;22.64;100.00;100624.56;20989963;28;20056;-75
2023/06/14 04:25:27;;;;;;;7.45;3.97;;;;;;;23.23;100.00;100629.56;20960898;28;20064;-74
2023/06/14 04:35:56;;;;;;;9.55;3.33;;;;;;;23.94;100.00;100632.09;20960742;28;20040;-75
2023/06/14 04:46:01;;;;;;;8.10;3.13;;;;;;;24.58;100.00;100630.25;20970469;28;20110;-75
2023/06/14 04:56:26;;;;;;;7.03;2.60;;;;;;;25.23;100.00;100642.59;20974909;28;20113;-76
2023/06/14 05:06:49;;;;;;;8.32;2.60;;;;;;;25.81;100.00;100645.22;20965208;28;20052;-76
2023/06/14 05:17:14;;;;;;;3.92;2.10;;;;;;;26.40;100.00;100644.09;20965591;28;20067;-75
2023/06/14 05:27:37;;;;;;;5.40;2.42;;;;;;;26.94;100.00;100672.84;21012003;28;20080;-75
2023/06/14 05:38:00;;;;;;;6.50;1.98;;;;;;;27.56;100.00;100691.16;21021453;28;20136;-76
2023/06/14 05:48:23;;;;;;;5.78;1.90;;;;;;;28.14;100.00;100696.00;20988678;28;20047;-76
2023/06/14 05:58:47;;;;;;;3.45;1.73;;;;;;;28.73;96.29;100718.72;20987933;28;20059;-76
2023/06/14 06:09:09;;;;;;;6.80;2.33;;;;;;;29.01;91.25;100718.84;20985337;28;20501;-77
2023/06/14 06:19:33;;;;;;;4.28;2.00;;;;;;;29.85;82.11;100719.84;21040013;28;20121;-76
2023/06/14 06:29:56;;;;;;;8.80;2.05;;;;;;;29.67;82.34;100721.88;21008400;28;20164;-76
2023/06/14 06:40:20;;;;;;;5.57;1.98;;;;;;;31.02;74.48;100735.59;21003048;28;20049;-77
2023/06/14 06:50:43;;;;;;;7.90;2.33;;;;;;;31.50;64.68;100737.63;20956591;28;20056;-76
2023/06/14 07:01:09;;;;;;;5.35;2.10;;;;;;;31.71;62.53;100742.50;21040771;28;20407;-73
2023/06/14 07:11:31;;;;;;;7.05;2.45;;;;;;;30.94;62.55;100757.06;21014249;28;20052;-73
2023/06/14 07:21:55;;;;;;;6.78;2.30;;;;;;;30.53;70.46;100757.16;21038328;28;20090;-73
2023/06/14 07:32:18;;;;;;;5.95;2.47;;;;;;;31.01;75.26;100766.56;20978688;28;20044;-74
2023/06/14 07:42:44;;;;;;;7.07;2.78;;;;;;;30.91;78.69;100771.81;21005480;28;20057;-73
2023/06/14 07:53:07;;;;;;;7.20;2.22;;;;;;;30.76;78.66;100792.81;20956073;28;20048;-75
2023/06/14 08:03:31;;;;;;;6.43;1.95;;;;;;;31.88;80.93;100786.75;21031433;28;20075;-76
2023/06/14 08:13:53;;;;;;;7.00;1.70;;;;;;;32.06;78.71;100795.44;20993471;28;20049;-76
2023/06/14 08:24:18;;;;;;;6.28;2.13;;;;;;;32.27;68.61;100810.28;20971240;28;20049;-76
2023/06/14 08:34:41;;;;;;;5.05;1.88;;;;;;;31.67;72.20;100808.28;21002193;28;20055;-76
2023/06/14 08:44:45;;;;;;;6.63;2.35;;;;;;;31.65;72.31;100821.16;20964331;28;20056;-76
2023/06/14 08:55:10;;;;;;;7.97;2.40;;;;;;;31.85;73.08;100825.19;20976120;28;20117;-77
2023/06/14 09:05:34;;;;;;;6.72;2.20;;;;;;;32.09;71.19;100838.06;20985933;28;20053;-76
2023/06/14 09:15:57;;;;;;;5.55;2.00;;;;;;;32.34;72.97;100835.31;21012712;28;20527;-76
2023/06/14 09:26:23;;;;;;;8.20;2.20;;;;;;;32.10;76.23;100853.50;20941676;28;20056;-76
2023/06/14 09:36:45;;;;;;;7.93;2.00;;;;;;;32.16;81.77;100837.56;20999289;28;20146;-76
2023/06/14 09:47:09;;;;;;;4.53;1.80;;;;;;;32.53;72.73;100851.22;20969759;28;20304;-77
2023/06/14 09:57:34;;;;;;;5.13;1.90;;;;;;;33.02;66.00;100838.31;21005913;28;20044;-76
2023/06/14 10:08:05;;;;;;;3.93;1.40;;;;;;;33.08;62.87;100837.00;21011189;28;21456;-76
2023/06/14 10:18:34;;;;;;;7.45;1.98;;;;;;;33.17;60.11;100836.28;20967210;28;20567;-75
2023/06/14 10:29:01;;;;;;;4.63;1.70;;;;;;;32.81;55.03;100837.25;20980554;28;20438;-76
2023/06/14 10:39:23;;;;;;;5.13;2.28;;;;;;;32.67;56.85;100827.38;20925658;28;20400;-74
2023/06/14 10:49:50;;;;;;;5.90;1.85;;;;;;;33.17;52.52;100817.13;20910128;28;20067;-74
2023/06/14 11:00:16;;;;;;;4.13;1.50;;;;;;;33.28;49.27;100816.34;20905214;28;20099;-74
2023/06/14 11:10:41;;;;;;;5.22;1.63;;;;;;;33.58;48.72;100825.72;20903900;28;20492;-74
2023/06/14 11:21:03;;;;;;;;;;;;;;;33.10;51.04;100815.84;20919354;28;20052;-74
2023/06/14 11:31:27;;;;;;;5.85;1.80;;;;;;;32.51;50.28;100812.19;20992239;28;19924;-74
2023/06/14 11:41:50;;;;;;;7.30;1.95;;;;;;;32.54;51.87;100825.63;20965532;28;20052;-75
2023/06/14 11:52:16;;;;;;;3.78;1.70;;;;;;;32.38;53.36;100837.69;20989527;28;20067;-75
2023/06/14 12:02:38;;;;;;;5.83;1.73;;;;;;;31.88;52.04;100827.72;20945270;28;20048;-74
2023/06/14 12:13:03;;;;;;;3.75;1.98;;;;;;;32.26;52.09;100824.94;20937647;28;20666;-74
2023/06/14 12:23:25;;;;;;;6.63;2.20;;;;;;;32.58;49.49;100810.72;20973051;28;20504;-74
2023/06/14 12:33:49;;;;;;;5.78;1.80;;;;;;;32.92;48.21;100811.81;20976215;28;20055;-73
2023/06/14 12:44:12;;;;;;;4.97;1.63;;;;;;;33.20;46.10;100808.72;20976209;28;20052;-73
2023/06/14 12:54:36;;;;;;;2.90;1.40;;;;;;;33.15;45.38;100800.81;20992189;28;20036;-75
2023/06/14 13:05:00;;;;;;;7.03;1.80;;;;;;;33.14;45.35;100788.16;20990806;28;20147;-74
2023/06/14 13:15:24;;;;;;;4.97;1.80;;;;;;;33.13;44.03;100791.88;20973256;28;20090;-73
2023/06/14 13:25:49;;;;;;;4.33;1.77;;;;;;;33.16;43.09;100763.38;20992272;28;20481;-73
2023/06/14 13:36:13;;;;;;;4.40;1.70;;;;;;;32.73;43.10;100779.53;20966589;28;20052;-73
2023/06/14 13:46:36;;;;;;;3.83;2.00;;;;;;;32.52;43.60;100806.59;20963445;28;20401;-73
2023/06/14 13:57:01;;;;;;;4.50;2.00;;;;;;;32.64;44.01;100793.84;20976412;28;20049;-73
2023/06/14 14:07:23;;;;;;;5.25;1.83;;;;;;;32.61;43.64;100784.03;20965904;28;20051;-73
2023/06/14 14:17:48;;;;;;;7.57;2.00;;;;;;;32.47;46.29;100783.34;20977171;28;20509;-73
2023/06/14 14:28:11;;;;;;;5.70;1.90;;;;;;;32.42;49.39;100767.28;20982751;28;20044;-74
2023/06/14 14:38:36;;;;;;;3.97;1.95;;;;;;;32.29;50.30;100775.53;20983916;28;20670;-72
2023/06/14 14:49:00;;;;;;;6.60;2.10;;;;;;;32.39;51.50;100775.69;21035939;28;20048;-72
2023/06/14 14:59:18;;;;;;;5.07;1.90;;;;;;;32.55;51.44;100784.50;21029409;28;20101;-73
2023/06/14 15:09:43;;;;;;;5.47;2.20;;;;;;;32.29;52.67;100783.75;20937352;28;20067;-73
2023/06/14 15:20:10;;;;;;;5.88;2.40;;;;;;;32.29;55.49;100777.38;20980089;28;20056;-73
2023/06/14 15:30:32;;;;;;;6.72;2.10;;;;;;;31.85;57.82;100775.16;20988837;28;20587;-74
2023/06/14 15:40:56;;;;;;;4.55;2.15;;;;;;;31.02;58.56;100762.88;20900541;28;20053;-74
2023/06/14 15:51:19;;;;;;;4.65;2.35;;;;;;;29.81;60.97;100764.56;20975199;28;20041;-73
2023/06/14 16:01:44;;;;;;;11.07;3.78;;;;;;;28.09;88.33;100765.94;20974975;28;20102;-74
2023/06/14 16:12:08;;;;;;;6.78;3.28;;;;;;;26.54;100.00;100772.41;20970589;28;20052;-74
2023/06/14 16:22:32;;;;;;;9.88;3.00;;;;;;;26.33;100.00;100775.31;20967575;28;20056;-74
2023/06/14 16:32:55;;;;;;;8.23;3.25;;;;;;;26.44;100.00;100787.38;20989700;28;20123;-74
2023/06/14 16:43:19;;;;;;;6.75;3.05;;;;;;;26.49;100.00;100785.31;20992400;28;20106;-75
2023/06/14 16:53:42;;;;;;;9.65;3.10;;;;;;;26.00;100.00;100781.38;20993423;28;20497;-74
2023/06/14 17:04:06;;;;;;;8.30;3.10;;;;;;;25.88;100.00;100784.66;20967686;28;20045;-74
2023/06/14 17:14:28;;;;;;;8.60;3.63;;;;;;;25.69;100.00;100783.78;20979374;28;20048;-74
2023/06/14 17:24:53;;;;;;;9.93;3.72;;;;;;;25.50;100.00;100796.34;20972988;28;20122;-74
2023/06/14 17:35:17;;;;;;;7.38;3.78;;;;;;;25.30;100.00;100794.53;20950075;28;20579;-74
2023/06/14 17:45:41;;;;;;;7.50;3.97;;;;;;;25.09;100.00;100793.66;20960949;28;20049;-74
2023/06/14 17:56:04;;;;;;;10.23;4.85;;;;;;;24.83;100.00;100796.56;20979261;28;20049;-74
2023/06/14 18:06:15;;;;;;;9.60;4.07;;;;;;;24.71;100.00;100807.91;20978619;28;20615;-74
2023/06/14 18:16:40;;;;;;;10.48;3.97;;;;;;;24.33;100.00;100806.78;20973203;28;20446;-74
2023/06/14 18:27:07;;;;;;;19.55;12.82;;;;;;;23.95;100.00;100824.47;20984253;28;20089;-73
2023/06/14 18:37:29;;;;;;;8.57;4.30;;;;;;;23.60;100.00;100842.84;20985841;28;20048;-74
2023/06/14 18:47:53;;;;;;;15.23;4.95;;;;;;;23.41;100.00;100852.50;20985368;28;20551;-74
2023/06/14 18:58:17;;;;;;;21.70;13.57;;;;;;;22.66;100.00;100857.72;20967646;28;20143;-75
2023/06/14 19:08:41;;;;;;;8.75;4.70;;;;;;;23.05;100.00;100863.63;20982386;28;20102;-73
2023/06/14 19:19:03;;;;;;;7.80;4.55;;;;;;;22.85;100.00;100879.56;20978966;28;20084;-74
2023/06/14 19:29:30;;;;;;;9.55;4.57;;;;;;;22.78;100.00;100883.38;20935615;28;20382;-74
2023/06/14 19:39:52;;;;;;;7.72;4.30;;;;;;;22.61;100.00;100889.28;20903211;28;20106;-74
2023/06/14 19:50:17;;;;;;;6.32;3.80;;;;;;;22.45;100.00;100889.84;20882751;28;20052;-75
2023/06/14 20:00:40;;;;;;;6.80;4.10;;;;;;;22.39;100.00;100880.13;20914466;28;20075;-74
2023/06/14 20:10:44;;;;;;;8.73;4.40;;;;;;;22.41;100.00;100875.56;20916505;28;20045;-75
2023/06/14 20:21:06;;;;;;;9.15;4.72;;;;;;;22.23;100.00;100873.47;20907366;28;20490;-75
2023/06/14 20:31:30;;;;;;;8.30;4.68;;;;;;;21.97;100.00;100900.25;20914941;28;20084;-74
2023/06/14 20:41:56;;;;;;;7.40;4.00;;;;;;;22.00;100.00;100906.41;20914555;28;20052;-74
2023/06/14 20:52:21;;;;;;;9.02;5.30;;;;;;;21.88;100.00;100904.94;20897522;28;20755;-74
2023/06/14 21:02:37;;;;;;;7.30;4.70;;;;;;;21.65;100.00;100898.44;20907259;28;20135;-75
2023/06/14 21:13:01;;;;;;;9.35;4.55;;;;;;;21.47;100.00;100898.00;20919239;28;20067;-75
2023/06/14 21:23:24;;;;;;;6.95;4.40;;;;;;;21.44;100.00;100882.00;20926104;28;20329;-74
2023/06/14 21:33:48;;;;;;;8.02;4.63;;;;;;;21.16;100.00;100888.13;20927278;28;20040;-74
2023/06/14 21:44:10;;;;;;;8.75;4.93;;;;;;;20.93;100.00;100899.41;20932830;28;20048;-75
2023/06/14 21:54:34;;;;;;;9.82;5.10;;;;;;;20.88;100.00;100904.00;20922206;28;20052;-75
2023/06/14 22:04:57;;;;;;;9.40;5.30;;;;;;;20.64;100.00;100887.56;20923409;28;20076;-74
2023/06/14 22:15:08;;;;;;;8.32;5.22;;;;;;;20.66;100.00;100906.34;20921224;28;20615;-75
2023/06/14 22:25:31;;;;;;;8.35;4.82;;;;;;;20.43;100.00;100905.97;20927733;28;20040;-74
2023/06/14 22:35:56;;;;;;;8.60;4.45;;;;;;;20.59;100.00;100900.22;20921393;28;20044;-74
2023/06/14 22:46:22;;;;;;;7.65;4.90;;;;;;;20.53;100.00;100878.91;20928726;28;20069;-74
2023/06/14 22:56:47;;;;;;;8.77;4.35;;;;;;;20.44;100.00;100854.97;20916339;28;20465;-74
2023/06/14 23:07:12;;;;;;;6.97;4.88;;;;;;;19.98;100.00;100870.28;20932858;28;20145;-74
2023/06/14 23:17:39;;;;;;;7.35;4.80;;;;;;;20.13;100.00;100878.91;20917982;28;20095;-75
2023/06/14 23:28:07;;;;;;;7.03;4.47;;;;;;;20.10;100.00;100846.78;20907462;28;20052;-74
2023/06/14 23:38:32;;;;;;;6.40;4.38;;;;;;;19.98;100.00;100847.06;20918068;28;20048;-74
2023/06/14 23:48:54;;;;;;;7.10;4.25;;;;;;;19.88;100.00;100856.22;20930849;28;20048;-74
2023/06/14 23:59:19;;;;;;;7.00;4.25;;;;;;;19.77;100.00;100855.53;20916455;28;20176;-74
